sensor_id;sensor_type;location;lat;lon;timestamp;temperature;humidity
65203;HTU21D;51788;45.124;38.966;2023-02-28T00:00:28;14.81;42.63
65203;HTU21D;51788;45.124;38.966;2023-02-28T00:02:54;14.81;42.61
65203;HTU21D;51788;45.124;38.966;2023-02-28T00:05:22;14.81;42.61
65203;HTU21D;51788;45.124;38.966;2023-02-28T00:07:50;14.78;42.61
65203;HTU21D;51788;45.124;38.966;2023-02-28T00:10:19;14.75;42.72
65203;HTU21D;51788;45.124;38.966;2023-02-28T00:12:50;14.75;42.76
65203;HTU21D;51788;45.124;38.966;2023-02-28T00:15:16;14.74;42.70
65203;HTU21D;51788;45.124;38.966;2023-02-28T00:17:43;14.71;42.82
65203;HTU21D;51788;45.124;38.966;2023-02-28T00:20:10;14.68;42.84
65203;HTU21D;51788;45.124;38.966;2023-02-28T00:22:45;14.64;43.01
65203;HTU21D;51788;45.124;38.966;2023-02-28T00:25:14;14.59;43.11
65203;HTU21D;51788;45.124;38.966;2023-02-28T00:27:40;14.56;43.19
65203;HTU21D;51788;45.124;38.966;2023-02-28T00:30:09;14.49;43.36
65203;HTU21D;51788;45.124;38.966;2023-02-28T00:32:36;14.42;43.52
65203;HTU21D;51788;45.124;38.966;2023-02-28T00:35:03;14.38;43.67
65203;HTU21D;51788;45.124;38.966;2023-02-28T00:37:29;14.33;43.77
65203;HTU21D;51788;45.124;38.966;2023-02-28T00:39:55;14.29;43.87
65203;HTU21D;51788;45.124;38.966;2023-02-28T00:42:22;14.21;44.01
65203;HTU21D;51788;45.124;38.966;2023-02-28T00:44:48;14.15;44.19
65203;HTU21D;51788;45.124;38.966;2023-02-28T00:47:14;14.08;44.32
65203;HTU21D;51788;45.124;38.966;2023-02-28T00:49:40;14.07;44.45
65203;HTU21D;51788;45.124;38.966;2023-02-28T00:52:08;14.01;44.57
65203;HTU21D;51788;45.124;38.966;2023-02-28T00:54:34;14.01;44.60
65203;HTU21D;51788;45.124;38.966;2023-02-28T00:57:00;14.01;44.58
65203;HTU21D;51788;45.124;38.966;2023-02-28T00:59:27;14.03;44.64
65203;HTU21D;51788;45.124;38.966;2023-02-28T01:01:52;14.04;44.65
65203;HTU21D;51788;45.124;38.966;2023-02-28T01:04:18;14.05;44.72
65203;HTU21D;51788;45.124;38.966;2023-02-28T01:06:44;14.01;44.79
65203;HTU21D;51788;45.124;38.966;2023-02-28T01:09:11;13.98;44.87
65203;HTU21D;51788;45.124;38.966;2023-02-28T01:11:38;13.94;44.97
65203;HTU21D;51788;45.124;38.966;2023-02-28T01:14:04;13.90;45.13
65203;HTU21D;51788;45.124;38.966;2023-02-28T01:16:30;13.84;45.26
65203;HTU21D;51788;45.124;38.966;2023-02-28T01:18:56;13.76;45.41
65203;HTU21D;51788;45.124;38.966;2023-02-28T01:21:23;13.64;45.60
65203;HTU21D;51788;45.124;38.966;2023-02-28T01:23:49;13.54;45.80
65203;HTU21D;51788;45.124;38.966;2023-02-28T01:26:20;13.51;45.99
65203;HTU21D;51788;45.124;38.966;2023-02-28T01:28:47;13.47;45.97
65203;HTU21D;51788;45.124;38.966;2023-02-28T01:31:14;13.38;46.12
65203;HTU21D;51788;45.124;38.966;2023-02-28T01:33:40;13.37;46.18
65203;HTU21D;51788;45.124;38.966;2023-02-28T01:36:11;13.35;46.20
65203;HTU21D;51788;45.124;38.966;2023-02-28T01:38:37;13.34;46.22
65203;HTU21D;51788;45.124;38.966;2023-02-28T01:41:04;13.35;46.33
65203;HTU21D;51788;45.124;38.966;2023-02-28T01:43:56;13.36;46.53
65203;HTU21D;51788;45.124;38.966;2023-02-28T01:46:23;13.34;46.38
65203;HTU21D;51788;45.124;38.966;2023-02-28T01:51:27;13.25;46.64
65203;HTU21D;51788;45.124;38.966;2023-02-28T01:53:59;13.24;46.67
65203;HTU21D;51788;45.124;38.966;2023-02-28T01:56:30;13.22;46.76
65203;HTU21D;51788;45.124;38.966;2023-02-28T01:58:58;13.21;46.79
65203;HTU21D;51788;45.124;38.966;2023-02-28T02:01:26;13.19;46.88
65203;HTU21D;51788;45.124;38.966;2023-02-28T02:04:01;13.17;47.02
65203;HTU21D;51788;45.124;38.966;2023-02-28T02:06:34;13.17;47.01
65203;HTU21D;51788;45.124;38.966;2023-02-28T02:09:01;13.15;47.05
65203;HTU21D;51788;45.124;38.966;2023-02-28T02:11:28;13.11;47.11
65203;HTU21D;51788;45.124;38.966;2023-02-28T02:17:04;13.10;47.43
65203;HTU21D;51788;45.124;38.966;2023-02-28T02:40:19;13.22;47.51
65203;HTU21D;51788;45.124;38.966;2023-02-28T02:45:49;13.16;47.71
65203;HTU21D;51788;45.124;38.966;2023-02-28T02:48:29;13.09;47.72
65203;HTU21D;51788;45.124;38.966;2023-02-28T02:51:11;13.06;47.84
65203;HTU21D;51788;45.124;38.966;2023-02-28T02:56:30;12.92;48.03
65203;HTU21D;51788;45.124;38.966;2023-02-28T02:59:02;12.90;48.15
65203;HTU21D;51788;45.124;38.966;2023-02-28T03:01:29;12.88;48.10
65203;HTU21D;51788;45.124;38.966;2023-02-28T03:04:03;12.81;48.15
65203;HTU21D;51788;45.124;38.966;2023-02-28T03:06:29;12.77;48.22
65203;HTU21D;51788;45.124;38.966;2023-02-28T03:08:55;12.74;48.34
65203;HTU21D;51788;45.124;38.966;2023-02-28T03:11:22;12.76;48.31
65203;HTU21D;51788;45.124;38.966;2023-02-28T03:14:04;12.72;48.37
65203;HTU21D;51788;45.124;38.966;2023-02-28T03:16:53;12.69;48.50
65203;HTU21D;51788;45.124;38.966;2023-02-28T03:25:03;12.57;48.57
65203;HTU21D;51788;45.124;38.966;2023-02-28T03:28:00;12.48;48.84
65203;HTU21D;51788;45.124;38.966;2023-02-28T03:30:39;12.40;48.82
65203;HTU21D;51788;45.124;38.966;2023-02-28T03:33:19;12.34;48.97
65203;HTU21D;51788;45.124;38.966;2023-02-28T03:35:54;12.30;49.10
65203;HTU21D;51788;45.124;38.966;2023-02-28T03:38:45;12.23;49.24
65203;HTU21D;51788;45.124;38.966;2023-02-28T03:41:18;12.22;49.21
65203;HTU21D;51788;45.124;38.966;2023-02-28T03:44:00;12.19;49.27
65203;HTU21D;51788;45.124;38.966;2023-02-28T03:46:31;12.17;49.31
65203;HTU21D;51788;45.124;38.966;2023-02-28T03:49:17;12.20;49.58
65203;HTU21D;51788;45.124;38.966;2023-02-28T03:51:46;12.28;49.25
65203;HTU21D;51788;45.124;38.966;2023-02-28T03:54:34;12.30;49.49
65203;HTU21D;51788;45.124;38.966;2023-02-28T03:59:47;12.45;49.18
65203;HTU21D;51788;45.124;38.966;2023-02-28T04:02:14;12.51;49.02
65203;HTU21D;51788;45.124;38.966;2023-02-28T04:04:40;12.59;48.89
65203;HTU21D;51788;45.124;38.966;2023-02-28T04:07:11;12.69;48.64
65203;HTU21D;51788;45.124;38.966;2023-02-28T04:09:38;12.77;48.44
65203;HTU21D;51788;45.124;38.966;2023-02-28T04:12:04;12.87;48.21
65203;HTU21D;51788;45.124;38.966;2023-02-28T04:14:30;12.93;48.00
65203;HTU21D;51788;45.124;38.966;2023-02-28T04:16:56;13.03;47.77
65203;HTU21D;51788;45.124;38.966;2023-02-28T04:19:22;13.12;47.44
65203;HTU21D;51788;45.124;38.966;2023-02-28T04:21:50;13.22;47.26
65203;HTU21D;51788;45.124;38.966;2023-02-28T04:24:22;13.29;47.11
65203;HTU21D;51788;45.124;38.966;2023-02-28T04:26:50;13.33;46.96
65203;HTU21D;51788;45.124;38.966;2023-02-28T04:29:25;13.38;46.80
65203;HTU21D;51788;45.124;38.966;2023-02-28T04:31:52;13.44;46.66
65203;HTU21D;51788;45.124;38.966;2023-02-28T04:34:23;13.49;46.59
65203;HTU21D;51788;45.124;38.966;2023-02-28T04:36:50;13.54;46.38
65203;HTU21D;51788;45.124;38.966;2023-02-28T04:39:16;13.60;46.31
65203;HTU21D;51788;45.124;38.966;2023-02-28T04:41:44;13.64;46.13
65203;HTU21D;51788;45.124;38.966;2023-02-28T04:44:11;13.69;45.96
65203;HTU21D;51788;45.124;38.966;2023-02-28T04:46:37;13.76;45.78
65203;HTU21D;51788;45.124;38.966;2023-02-28T04:49:03;13.80;45.74
65203;HTU21D;51788;45.124;38.966;2023-02-28T04:51:28;13.83;45.70
65203;HTU21D;51788;45.124;38.966;2023-02-28T04:53:55;13.90;45.54
65203;HTU21D;51788;45.124;38.966;2023-02-28T04:56:21;13.94;45.46
65203;HTU21D;51788;45.124;38.966;2023-02-28T04:58:47;14.01;45.34
65203;HTU21D;51788;45.124;38.966;2023-02-28T05:01:30;14.05;45.23
65203;HTU21D;51788;45.124;38.966;2023-02-28T05:03:58;14.12;45.20
65203;HTU21D;51788;45.124;38.966;2023-02-28T05:06:26;14.15;45.22
65203;HTU21D;51788;45.124;38.966;2023-02-28T05:08:53;14.18;45.25
65203;HTU21D;51788;45.124;38.966;2023-02-28T05:11:27;14.20;45.28
65203;HTU21D;51788;45.124;38.966;2023-02-28T05:14:05;14.24;45.26
65203;HTU21D;51788;45.124;38.966;2023-02-28T05:16:32;14.29;45.25
65203;HTU21D;51788;45.124;38.966;2023-02-28T05:18:58;14.36;45.22
65203;HTU21D;51788;45.124;38.966;2023-02-28T05:21:30;14.42;45.16
65203;HTU21D;51788;45.124;38.966;2023-02-28T05:24:02;14.52;45.07
65203;HTU21D;51788;45.124;38.966;2023-02-28T05:26:29;14.60;45.03
65203;HTU21D;51788;45.124;38.966;2023-02-28T05:28:55;14.64;44.99
65203;HTU21D;51788;45.124;38.966;2023-02-28T05:31:22;14.67;44.99
65203;HTU21D;51788;45.124;38.966;2023-02-28T05:33:48;14.66;45.05
65203;HTU21D;51788;45.124;38.966;2023-02-28T05:36:14;14.59;45.19
65203;HTU21D;51788;45.124;38.966;2023-02-28T05:38:40;14.39;45.53
65203;HTU21D;51788;45.124;38.966;2023-02-28T05:41:10;14.24;45.96
65203;HTU21D;51788;45.124;38.966;2023-02-28T05:43:37;14.11;46.22
65203;HTU21D;51788;45.124;38.966;2023-02-28T05:46:07;13.96;46.59
65203;HTU21D;51788;45.124;38.966;2023-02-28T05:48:35;13.79;47.05
65203;HTU21D;51788;45.124;38.966;2023-02-28T05:51:01;13.68;47.32
65203;HTU21D;51788;45.124;38.966;2023-02-28T05:53:29;13.53;47.79
65203;HTU21D;51788;45.124;38.966;2023-02-28T05:55:55;13.27;48.54
65203;HTU21D;51788;45.124;38.966;2023-02-28T05:58:21;13.18;48.89
65203;HTU21D;51788;45.124;38.966;2023-02-28T06:00:47;13.15;49.03
65203;HTU21D;51788;45.124;38.966;2023-02-28T06:03:14;13.08;49.31
65203;HTU21D;51788;45.124;38.966;2023-02-28T06:05:41;13.06;49.42
65203;HTU21D;51788;45.124;38.966;2023-02-28T06:08:07;13.05;49.58
65203;HTU21D;51788;45.124;38.966;2023-02-28T06:10:34;13.08;49.74
65203;HTU21D;51788;45.124;38.966;2023-02-28T06:13:02;12.99;50.05
65203;HTU21D;51788;45.124;38.966;2023-02-28T06:15:28;12.95;50.31
65203;HTU21D;51788;45.124;38.966;2023-02-28T06:17:54;12.94;50.52
65203;HTU21D;51788;45.124;38.966;2023-02-28T06:20:23;13.03;50.73
65203;HTU21D;51788;45.124;38.966;2023-02-28T06:22:49;13.07;50.72
65203;HTU21D;51788;45.124;38.966;2023-02-28T06:25:17;12.88;51.19
65203;HTU21D;51788;45.124;38.966;2023-02-28T06:27:43;12.84;51.74
65203;HTU21D;51788;45.124;38.966;2023-02-28T06:30:10;12.87;51.86
65203;HTU21D;51788;45.124;38.966;2023-02-28T06:32:36;12.86;51.90
65203;HTU21D;51788;45.124;38.966;2023-02-28T06:35:03;12.97;52.13
65203;HTU21D;51788;45.124;38.966;2023-02-28T06:37:30;13.11;52.37
65203;HTU21D;51788;45.124;38.966;2023-02-28T06:39:57;13.23;52.37
65203;HTU21D;51788;45.124;38.966;2023-02-28T06:42:24;13.29;52.45
65203;HTU21D;51788;45.124;38.966;2023-02-28T06:44:57;13.33;52.55
65203;HTU21D;51788;45.124;38.966;2023-02-28T06:47:23;13.41;52.38
65203;HTU21D;51788;45.124;38.966;2023-02-28T06:49:49;13.50;52.40
65203;HTU21D;51788;45.124;38.966;2023-02-28T06:52:15;13.54;52.45
65203;HTU21D;51788;45.124;38.966;2023-02-28T06:54:42;13.66;52.41
65203;HTU21D;51788;45.124;38.966;2023-02-28T06:57:08;13.78;52.29
65203;HTU21D;51788;45.124;38.966;2023-02-28T06:59:34;13.78;52.36
65203;HTU21D;51788;45.124;38.966;2023-02-28T07:02:01;13.80;52.65
65203;HTU21D;51788;45.124;38.966;2023-02-28T07:04:28;13.91;52.71
65203;HTU21D;51788;45.124;38.966;2023-02-28T07:06:54;13.98;52.68
65203;HTU21D;51788;45.124;38.966;2023-02-28T07:09:22;14.03;52.61
65203;HTU21D;51788;45.124;38.966;2023-02-28T07:11:49;13.99;52.88
65203;HTU21D;51788;45.124;38.966;2023-02-28T07:14:14;13.88;53.36
65203;HTU21D;51788;45.124;38.966;2023-02-28T07:16:40;13.96;53.29
65203;HTU21D;51788;45.124;38.966;2023-02-28T07:19:06;13.91;53.47
65203;HTU21D;51788;45.124;38.966;2023-02-28T07:21:32;13.88;53.74
65203;HTU21D;51788;45.124;38.966;2023-02-28T07:23:58;13.89;53.88
65203;HTU21D;51788;45.124;38.966;2023-02-28T07:26:24;13.92;53.78
65203;HTU21D;51788;45.124;38.966;2023-02-28T07:28:50;14.04;53.70
65203;HTU21D;51788;45.124;38.966;2023-02-28T07:31:17;14.09;53.73
65203;HTU21D;51788;45.124;38.966;2023-02-28T07:33:43;14.09;53.88
65203;HTU21D;51788;45.124;38.966;2023-02-28T07:36:12;14.01;54.15
65203;HTU21D;51788;45.124;38.966;2023-02-28T07:38:42;14.07;54.31
65203;HTU21D;51788;45.124;38.966;2023-02-28T07:41:09;14.23;54.26
65203;HTU21D;51788;45.124;38.966;2023-02-28T07:43:36;14.25;54.21
65203;HTU21D;51788;45.124;38.966;2023-02-28T07:46:10;14.27;54.39
65203;HTU21D;51788;45.124;38.966;2023-02-28T07:48:36;14.30;54.33
65203;HTU21D;51788;45.124;38.966;2023-02-28T07:51:02;14.32;54.39
65203;HTU21D;51788;45.124;38.966;2023-02-28T07:53:29;14.35;54.78
65203;HTU21D;51788;45.124;38.966;2023-02-28T07:55:56;14.44;54.92
65203;HTU21D;51788;45.124;38.966;2023-02-28T07:58:23;14.43;55.44
65203;HTU21D;51788;45.124;38.966;2023-02-28T08:00:50;14.62;55.07
65203;HTU21D;51788;45.124;38.966;2023-02-28T08:03:18;14.66;55.07
65203;HTU21D;51788;45.124;38.966;2023-02-28T08:05:44;14.67;55.36
65203;HTU21D;51788;45.124;38.966;2023-02-28T08:08:10;14.66;55.55
65203;HTU21D;51788;45.124;38.966;2023-02-28T08:10:37;14.65;56.07
65203;HTU21D;51788;45.124;38.966;2023-02-28T08:13:03;14.74;56.29
65203;HTU21D;51788;45.124;38.966;2023-02-28T08:15:29;14.81;56.52
65203;HTU21D;51788;45.124;38.966;2023-02-28T08:17:55;14.81;56.62
65203;HTU21D;51788;45.124;38.966;2023-02-28T08:20:23;14.82;56.68
65203;HTU21D;51788;45.124;38.966;2023-02-28T08:22:50;14.79;56.95
65203;HTU21D;51788;45.124;38.966;2023-02-28T08:25:16;14.91;57.23
65203;HTU21D;51788;45.124;38.966;2023-02-28T08:27:42;14.94;57.00
65203;HTU21D;51788;45.124;38.966;2023-02-28T08:30:11;14.70;57.51
65203;HTU21D;51788;45.124;38.966;2023-02-28T08:32:38;14.66;57.70
65203;HTU21D;51788;45.124;38.966;2023-02-28T08:35:04;14.55;58.24
65203;HTU21D;51788;45.124;38.966;2023-02-28T08:37:30;14.48;58.80
65203;HTU21D;51788;45.124;38.966;2023-02-28T08:39:56;14.33;59.27
65203;HTU21D;51788;45.124;38.966;2023-02-28T08:42:23;14.36;59.68
65203;HTU21D;51788;45.124;38.966;2023-02-28T08:44:49;14.39;60.01
65203;HTU21D;51788;45.124;38.966;2023-02-28T08:47:15;14.45;59.71
65203;HTU21D;51788;45.124;38.966;2023-02-28T08:49:41;14.52;59.57
65203;HTU21D;51788;45.124;38.966;2023-02-28T08:52:07;14.56;59.66
65203;HTU21D;51788;45.124;38.966;2023-02-28T08:54:33;14.65;59.48
65203;HTU21D;51788;45.124;38.966;2023-02-28T08:57:00;14.80;59.69
65203;HTU21D;51788;45.124;38.966;2023-02-28T08:59:26;14.81;59.67
65203;HTU21D;51788;45.124;38.966;2023-02-28T09:01:52;14.91;60.00
65203;HTU21D;51788;45.124;38.966;2023-02-28T09:04:18;14.98;59.74
65203;HTU21D;51788;45.124;38.966;2023-02-28T09:06:44;15.00;59.75
65203;HTU21D;51788;45.124;38.966;2023-02-28T09:09:10;15.10;60.02
65203;HTU21D;51788;45.124;38.966;2023-02-28T09:11:36;15.11;59.58
65203;HTU21D;51788;45.124;38.966;2023-02-28T09:14:02;15.09;59.33
65203;HTU21D;51788;45.124;38.966;2023-02-28T09:16:32;15.11;59.30
65203;HTU21D;51788;45.124;38.966;2023-02-28T09:18:58;15.16;59.12
65203;HTU21D;51788;45.124;38.966;2023-02-28T09:21:24;15.23;59.19
65203;HTU21D;51788;45.124;38.966;2023-02-28T09:23:50;15.26;59.19
65203;HTU21D;51788;45.124;38.966;2023-02-28T09:26:19;15.13;59.58
65203;HTU21D;51788;45.124;38.966;2023-02-28T09:28:45;14.93;59.84
65203;HTU21D;51788;45.124;38.966;2023-02-28T09:31:14;14.85;60.21
65203;HTU21D;51788;45.124;38.966;2023-02-28T09:33:40;14.92;60.16
65203;HTU21D;51788;45.124;38.966;2023-02-28T09:36:07;14.96;59.96
65203;HTU21D;51788;45.124;38.966;2023-02-28T09:38:33;14.93;60.02
65203;HTU21D;51788;45.124;38.966;2023-02-28T09:41:03;14.80;60.10
65203;HTU21D;51788;45.124;38.966;2023-02-28T09:43:34;14.70;60.77
65203;HTU21D;51788;45.124;38.966;2023-02-28T09:48:44;14.59;60.78
65203;HTU21D;51788;45.124;38.966;2023-02-28T09:54:01;14.62;61.18
65203;HTU21D;51788;45.124;38.966;2023-02-28T09:56:38;14.70;61.32
65203;HTU21D;51788;45.124;38.966;2023-02-28T10:06:51;14.68;61.25
65203;HTU21D;51788;45.124;38.966;2023-02-28T10:09:27;14.70;61.66
65203;HTU21D;51788;45.124;38.966;2023-02-28T10:12:02;14.73;61.57
65203;HTU21D;51788;45.124;38.966;2023-02-28T10:14:31;14.74;61.56
65203;HTU21D;51788;45.124;38.966;2023-02-28T10:17:11;14.77;61.70
65203;HTU21D;51788;45.124;38.966;2023-02-28T10:19:51;14.75;61.51
65203;HTU21D;51788;45.124;38.966;2023-02-28T10:25:20;14.43;62.41
65203;HTU21D;51788;45.124;38.966;2023-02-28T10:27:47;14.23;62.82
65203;HTU21D;51788;45.124;38.966;2023-02-28T10:30:13;14.25;63.27
65203;HTU21D;51788;45.124;38.966;2023-02-28T10:32:49;14.19;63.24
65203;HTU21D;51788;45.124;38.966;2023-02-28T10:35:19;14.06;63.35
65203;HTU21D;51788;45.124;38.966;2023-02-28T10:37:49;13.90;63.73
65203;HTU21D;51788;45.124;38.966;2023-02-28T10:45:54;13.81;64.59
65203;HTU21D;51788;45.124;38.966;2023-02-28T10:53:28;13.85;64.79
65203;HTU21D;51788;45.124;38.966;2023-02-28T10:58:49;13.96;64.38
65203;HTU21D;51788;45.124;38.966;2023-02-28T11:01:19;13.73;65.01
65203;HTU21D;51788;45.124;38.966;2023-02-28T11:03:46;13.76;65.37
65203;HTU21D;51788;45.124;38.966;2023-02-28T11:06:16;13.84;65.23
65203;HTU21D;51788;45.124;38.966;2023-02-28T11:08:56;13.91;65.53
65203;HTU21D;51788;45.124;38.966;2023-02-28T11:11:26;14.06;65.11
65203;HTU21D;51788;45.124;38.966;2023-02-28T11:13:55;14.00;65.31
65203;HTU21D;51788;45.124;38.966;2023-02-28T11:16:32;14.05;65.61
65203;HTU21D;51788;45.124;38.966;2023-02-28T11:18:59;14.14;65.36
65203;HTU21D;51788;45.124;38.966;2023-02-28T11:21:26;14.40;65.06
65203;HTU21D;51788;45.124;38.966;2023-02-28T11:24:02;14.56;64.71
65203;HTU21D;51788;45.124;38.966;2023-02-28T11:26:42;14.59;64.96
65203;HTU21D;51788;45.124;38.966;2023-02-28T11:29:12;14.50;64.60
65203;HTU21D;51788;45.124;38.966;2023-02-28T11:31:41;14.21;65.17
65203;HTU21D;51788;45.124;38.966;2023-02-28T11:34:27;14.13;66.00
65203;HTU21D;51788;45.124;38.966;2023-02-28T11:36:55;14.26;65.50
65203;HTU21D;51788;45.124;38.966;2023-02-28T11:39:23;14.42;65.54
65203;HTU21D;51788;45.124;38.966;2023-02-28T11:44:51;14.23;65.56
65203;HTU21D;51788;45.124;38.966;2023-02-28T11:53:02;14.21;65.71
65203;HTU21D;51788;45.124;38.966;2023-02-28T11:55:39;14.15;65.75
65203;HTU21D;51788;45.124;38.966;2023-02-28T12:01:00;14.19;65.85
65203;HTU21D;51788;45.124;38.966;2023-02-28T12:06:22;14.25;65.72
65203;HTU21D;51788;45.124;38.966;2023-02-28T12:09:11;14.21;66.07
65203;HTU21D;51788;45.124;38.966;2023-02-28T12:12:19;14.11;65.82
65203;HTU21D;51788;45.124;38.966;2023-02-28T12:15:05;13.98;66.33
65203;HTU21D;51788;45.124;38.966;2023-02-28T12:26:42;13.45;67.51
65203;HTU21D;51788;45.124;38.966;2023-02-28T12:29:30;13.56;67.65
65203;HTU21D;51788;45.124;38.966;2023-02-28T12:34:37;13.59;67.07
65203;HTU21D;51788;45.124;38.966;2023-02-28T12:37:09;13.61;67.25
65203;HTU21D;51788;45.124;38.966;2023-02-28T12:39:39;13.61;66.91
65203;HTU21D;51788;45.124;38.966;2023-02-28T12:44:56;13.61;66.91
65203;HTU21D;51788;45.124;38.966;2023-02-28T12:47:23;13.58;66.85
65203;HTU21D;51788;45.124;38.966;2023-02-28T12:49:54;13.47;66.94
65203;HTU21D;51788;45.124;38.966;2023-02-28T12:55:21;13.22;67.20
65203;HTU21D;51788;45.124;38.966;2023-02-28T13:00:25;13.08;67.90
65203;HTU21D;51788;45.124;38.966;2023-02-28T13:11:26;13.22;67.77
65203;HTU21D;51788;45.124;38.966;2023-02-28T13:14:05;13.23;67.77
65203;HTU21D;51788;45.124;38.966;2023-02-28T13:16:51;13.16;67.70
65203;HTU21D;51788;45.124;38.966;2023-02-28T13:19:20;13.03;67.84
65203;HTU21D;51788;45.124;38.966;2023-02-28T13:21:50;13.05;68.12
65203;HTU21D;51788;45.124;38.966;2023-02-28T13:24:52;13.05;68.45
65203;HTU21D;51788;45.124;38.966;2023-02-28T13:27:31;12.95;67.81
65203;HTU21D;51788;45.124;38.966;2023-02-28T13:29:57;12.69;68.30
65203;HTU21D;51788;45.124;38.966;2023-02-28T13:32:32;12.64;68.45
65203;HTU21D;51788;45.124;38.966;2023-02-28T13:47:39;11.91;69.61
65203;HTU21D;51788;45.124;38.966;2023-02-28T13:50:32;11.67;70.24
65203;HTU21D;51788;45.124;38.966;2023-02-28T14:02:11;11.39;70.62
65203;HTU21D;51788;45.124;38.966;2023-02-28T14:04:50;11.34;71.11
65203;HTU21D;51788;45.124;38.966;2023-02-28T14:07:24;11.27;70.34
65203;HTU21D;51788;45.124;38.966;2023-02-28T14:10:03;11.27;70.58
65203;HTU21D;51788;45.124;38.966;2023-02-28T14:12:57;11.08;71.60
65203;HTU21D;51788;45.124;38.966;2023-02-28T14:18:01;10.51;71.70
65203;HTU21D;51788;45.124;38.966;2023-02-28T14:20:31;10.50;71.64
65203;HTU21D;51788;45.124;38.966;2023-02-28T14:25:43;10.45;71.76
65203;HTU21D;51788;45.124;38.966;2023-02-28T14:33:48;10.23;71.76
65203;HTU21D;51788;45.124;38.966;2023-02-28T14:36:27;10.06;72.38
65203;HTU21D;51788;45.124;38.966;2023-02-28T14:39:06;9.95;72.61
65203;HTU21D;51788;45.124;38.966;2023-02-28T14:41:33;10.01;72.88
65203;HTU21D;51788;45.124;38.966;2023-02-28T14:44:24;10.07;72.70
65203;HTU21D;51788;45.124;38.966;2023-02-28T14:46:59;10.10;72.60
65203;HTU21D;51788;45.124;38.966;2023-02-28T14:49:51;10.03;73.38
65203;HTU21D;51788;45.124;38.966;2023-02-28T14:52:19;9.90;73.03
65203;HTU21D;51788;45.124;38.966;2023-02-28T14:54:46;9.63;73.35
65203;HTU21D;51788;45.124;38.966;2023-02-28T14:57:40;9.62;73.61
65203;HTU21D;51788;45.124;38.966;2023-02-28T15:00:33;9.55;73.77
65203;HTU21D;51788;45.124;38.966;2023-02-28T15:03:11;9.62;73.65
65203;HTU21D;51788;45.124;38.966;2023-02-28T15:05:51;9.69;73.54
65203;HTU21D;51788;45.124;38.966;2023-02-28T15:08:18;9.77;73.47
65203;HTU21D;51788;45.124;38.966;2023-02-28T15:10:54;9.77;73.32
65203;HTU21D;51788;45.124;38.966;2023-02-28T15:13:21;9.69;73.56
65203;HTU21D;51788;45.124;38.966;2023-02-28T15:18:27;9.44;73.44
65203;HTU21D;51788;45.124;38.966;2023-02-28T15:20:55;9.41;74.01
65203;HTU21D;51788;45.124;38.966;2023-02-28T15:23:21;9.47;73.91
65203;HTU21D;51788;45.124;38.966;2023-02-28T15:25:48;9.40;73.83
65203;HTU21D;51788;45.124;38.966;2023-02-28T15:28:20;9.34;74.20
65203;HTU21D;51788;45.124;38.966;2023-02-28T15:30:57;9.34;74.06
65203;HTU21D;51788;45.124;38.966;2023-02-28T15:33:26;9.20;74.09
65203;HTU21D;51788;45.124;38.966;2023-02-28T15:36:16;9.11;74.34
65203;HTU21D;51788;45.124;38.966;2023-02-28T15:38:43;8.85;74.68
65203;HTU21D;51788;45.124;38.966;2023-02-28T15:41:30;8.56;75.62
65203;HTU21D;51788;45.124;38.966;2023-02-28T15:46:58;8.66;75.51
65203;HTU21D;51788;45.124;38.966;2023-02-28T15:49:24;8.67;75.21
65203;HTU21D;51788;45.124;38.966;2023-02-28T15:51:52;8.73;75.38
65203;HTU21D;51788;45.124;38.966;2023-02-28T15:54:22;8.67;75.27
65203;HTU21D;51788;45.124;38.966;2023-02-28T15:57:03;8.51;75.39
65203;HTU21D;51788;45.124;38.966;2023-02-28T15:59:31;8.41;75.44
65203;HTU21D;51788;45.124;38.966;2023-02-28T16:04:35;7.90;76.07
65203;HTU21D;51788;45.124;38.966;2023-02-28T16:07:12;7.72;76.19
65203;HTU21D;51788;45.124;38.966;2023-02-28T16:09:38;7.60;77.10
65203;HTU21D;51788;45.124;38.966;2023-02-28T16:12:04;7.67;76.97
65203;HTU21D;51788;45.124;38.966;2023-02-28T16:14:31;7.75;76.69
65203;HTU21D;51788;45.124;38.966;2023-02-28T16:17:04;7.59;76.37
65203;HTU21D;51788;45.124;38.966;2023-02-28T16:19:30;7.42;76.76
65203;HTU21D;51788;45.124;38.966;2023-02-28T16:21:57;7.29;77.02
65203;HTU21D;51788;45.124;38.966;2023-02-28T16:24:23;7.32;77.72
65203;HTU21D;51788;45.124;38.966;2023-02-28T16:26:51;7.34;77.11
65203;HTU21D;51788;45.124;38.966;2023-02-28T16:29:30;7.29;76.97
65203;HTU21D;51788;45.124;38.966;2023-02-28T16:31:57;7.27;76.86
65203;HTU21D;51788;45.124;38.966;2023-02-28T16:34:24;7.05;77.15
65203;HTU21D;51788;45.124;38.966;2023-02-28T16:36:52;7.04;77.30
65203;HTU21D;51788;45.124;38.966;2023-02-28T16:39:18;7.13;77.72
65203;HTU21D;51788;45.124;38.966;2023-02-28T16:41:47;7.28;78.05
65203;HTU21D;51788;45.124;38.966;2023-02-28T16:44:32;7.41;77.20
65203;HTU21D;51788;45.124;38.966;2023-02-28T16:47:03;7.43;77.72
65203;HTU21D;51788;45.124;38.966;2023-02-28T16:49:30;7.34;77.56
65203;HTU21D;51788;45.124;38.966;2023-02-28T16:51:56;7.26;77.34
65203;HTU21D;51788;45.124;38.966;2023-02-28T16:54:30;7.15;77.88
65203;HTU21D;51788;45.124;38.966;2023-02-28T16:56:57;7.09;77.79
65203;HTU21D;51788;45.124;38.966;2023-02-28T16:59:24;6.73;78.18
65203;HTU21D;51788;45.124;38.966;2023-02-28T17:01:52;6.46;79.14
65203;HTU21D;51788;45.124;38.966;2023-02-28T17:04:18;6.60;79.52
65203;HTU21D;51788;45.124;38.966;2023-02-28T17:06:45;6.73;79.37
65203;HTU21D;51788;45.124;38.966;2023-02-28T17:09:16;6.84;79.16
65203;HTU21D;51788;45.124;38.966;2023-02-28T17:11:43;6.93;78.76
65203;HTU21D;51788;45.124;38.966;2023-02-28T17:14:10;6.94;78.66
65203;HTU21D;51788;45.124;38.966;2023-02-28T17:16:38;6.91;78.54
65203;HTU21D;51788;45.124;38.966;2023-02-28T17:19:12;6.96;78.72
65203;HTU21D;51788;45.124;38.966;2023-02-28T17:21:41;7.04;78.94
65203;HTU21D;51788;45.124;38.966;2023-02-28T17:24:08;6.96;78.78
65203;HTU21D;51788;45.124;38.966;2023-02-28T17:26:39;7.00;78.70
65203;HTU21D;51788;45.124;38.966;2023-02-28T17:29:19;6.95;79.34
65203;HTU21D;51788;45.124;38.966;2023-02-28T17:31:51;6.95;79.04
65203;HTU21D;51788;45.124;38.966;2023-02-28T17:34:18;6.88;79.30
65203;HTU21D;51788;45.124;38.966;2023-02-28T17:36:46;6.81;79.40
65203;HTU21D;51788;45.124;38.966;2023-02-28T17:39:14;6.78;79.13
65203;HTU21D;51788;45.124;38.966;2023-02-28T17:41:41;6.69;79.13
65203;HTU21D;51788;45.124;38.966;2023-02-28T17:44:09;6.63;79.62
65203;HTU21D;51788;45.124;38.966;2023-02-28T17:46:35;6.78;79.44
65203;HTU21D;51788;45.124;38.966;2023-02-28T17:49:02;6.79;79.12
65203;HTU21D;51788;45.124;38.966;2023-02-28T17:51:31;6.78;79.11
65203;HTU21D;51788;45.124;38.966;2023-02-28T17:53:59;6.78;79.51
65203;HTU21D;51788;45.124;38.966;2023-02-28T17:56:26;6.74;79.30